Whitefish, Canada
Current Conditions -  °F | °C
As of 7:00 PM on Friday 19 Dec 2014 (Local Time) from CYSB Reporting Station
Clear Clear  
Wind Chill:   Ceiling: Unl
Heat Index: 12°   Visibility: 15mi
Dew Point: 10°   Wind: 7mph
Humidity: 92%   Direction: 10°N
Pressure: 30.25"   Gusts: NA
Location:  46.37°N, 81.32°W
Report Text: CYSB 200000Z 01006KT 15SM SKC M11/M12 A3025 RMK SLP277
Loading
Personal Weather Stations






























Interactive Weather Map New forecast layout! Learn more

10-Day Weather Forecast

Advertisements
Track Severe Weather on mobile